createdAt,value
2023-04-25T00:00:57.748Z,1.20
2023-04-25T00:03:26.294Z,1.02
2023-04-25T00:05:53.696Z,0.93
2023-04-25T00:08:21.298Z,1.05
2023-04-25T00:10:50.052Z,1.33
2023-04-25T00:13:18.364Z,1.00
2023-04-25T00:15:49.076Z,0.95
2023-04-25T00:18:16.631Z,1.00
2023-04-25T00:20:47.380Z,0.93
2023-04-25T00:23:18.701Z,0.82
2023-04-25T00:25:50.290Z,0.90
2023-04-25T00:28:17.965Z,0.90
2023-04-25T00:30:45.476Z,1.15
2023-04-25T00:33:12.675Z,0.73
2023-04-25T00:35:40.039Z,1.00
2023-04-25T00:38:07.185Z,0.90
2023-04-25T00:40:34.324Z,0.80
2023-04-25T00:43:01.438Z,1.00
2023-04-25T00:45:32.137Z,1.02
2023-04-25T00:47:59.290Z,0.90
2023-04-25T00:50:26.483Z,0.75
2023-04-25T00:52:53.748Z,0.80
2023-04-25T00:55:22.634Z,0.80
2023-04-25T01:00:17.306Z,1.10
2023-04-25T01:02:45.806Z,0.80
2023-04-25T01:05:13.418Z,1.00
2023-04-25T01:07:41.580Z,0.75
2023-04-25T01:10:09.038Z,0.90
2023-04-25T01:12:36.309Z,0.98
2023-04-25T01:15:03.520Z,1.08
2023-04-25T01:17:30.801Z,1.10
2023-04-25T01:19:58.079Z,0.85
2023-04-25T01:22:25.661Z,1.00
2023-04-25T01:24:52.996Z,0.93
2023-04-25T01:27:21.772Z,0.88
2023-04-25T01:29:49.161Z,0.95
2023-04-25T01:32:16.339Z,1.00
2023-04-25T01:34:43.560Z,0.90
2023-04-25T01:37:10.731Z,0.70
2023-04-25T01:39:38.018Z,0.80
2023-04-25T01:42:05.254Z,1.05
2023-04-25T01:44:32.376Z,0.88
2023-04-25T01:46:59.524Z,0.80
2023-04-25T01:49:26.690Z,0.98
2023-04-25T01:51:54.145Z,0.90
2023-04-25T01:54:21.398Z,0.90
2023-04-25T01:56:59.079Z,0.90
2023-04-25T01:59:26.519Z,1.00
2023-04-25T02:01:53.733Z,0.88
2023-04-25T02:04:21.150Z,0.73
2023-04-25T02:06:48.326Z,0.82
2023-04-25T02:09:15.546Z,1.23
2023-04-25T02:11:42.778Z,1.77
2023-04-25T02:14:11.765Z,0.77
2023-04-25T02:19:07.261Z,1.05
2023-04-25T02:21:36.714Z,1.00
2023-04-25T02:24:04.220Z,0.70
2023-04-25T02:26:31.580Z,0.98
2023-04-25T02:28:58.915Z,0.90
2023-04-25T02:31:27.512Z,1.15
2023-04-25T02:33:54.654Z,1.10
2023-04-25T02:36:21.757Z,0.77
2023-04-25T02:38:48.922Z,0.80
2023-04-25T02:41:16.040Z,0.95
2023-04-25T02:43:43.161Z,0.90
2023-04-25T02:46:10.712Z,0.80
2023-04-25T02:48:37.934Z,0.82
2023-04-25T02:51:05.100Z,0.80
2023-04-25T02:53:32.274Z,0.93
2023-04-25T02:56:00.254Z,1.02
2023-04-25T02:58:27.433Z,1.10
2023-04-25T03:00:54.659Z,1.05
2023-04-25T03:03:23.027Z,0.80
2023-04-25T03:05:51.472Z,1.10
2023-04-25T03:08:19.305Z,1.05
2023-04-25T03:10:46.730Z,0.75
2023-04-25T03:13:13.838Z,0.80
2023-04-25T03:15:41.067Z,0.93
2023-04-25T03:18:08.298Z,0.90
2023-04-25T03:20:35.466Z,1.05
2023-04-25T03:23:02.787Z,0.90
2023-04-25T03:25:29.912Z,0.90
2023-04-25T03:27:57.045Z,0.98
2023-04-25T03:30:24.136Z,0.80
2023-04-25T03:32:51.389Z,1.00
2023-04-25T03:35:18.752Z,1.23
2023-04-25T03:37:46.644Z,0.90
2023-04-25T03:40:13.937Z,1.20
2023-04-25T03:42:42.152Z,0.77
2023-04-25T03:45:11.452Z,0.70
2023-04-25T03:47:38.789Z,1.10
2023-04-25T03:50:06.264Z,1.10
2023-04-25T03:52:33.541Z,1.15
2023-04-25T03:55:00.685Z,1.38
2023-04-25T03:57:27.865Z,1.10
2023-04-25T03:59:55.082Z,1.08
2023-04-25T04:02:22.499Z,1.15
2023-04-25T04:04:51.222Z,1.25
2023-04-25T04:07:18.548Z,0.82
2023-04-25T04:09:45.822Z,0.88
2023-04-25T04:12:14.373Z,0.80
2023-04-25T04:14:41.852Z,1.00
2023-04-25T04:17:08.941Z,1.30
2023-04-25T04:19:36.238Z,1.00
2023-04-25T04:22:03.358Z,0.85
2023-04-25T04:24:30.699Z,1.10
2023-04-25T04:26:57.950Z,0.95
2023-04-25T04:29:25.568Z,1.02
2023-04-25T04:31:53.764Z,1.15
2023-04-25T04:34:21.315Z,0.95
2023-04-25T04:36:48.469Z,0.98
2023-04-25T04:39:15.817Z,0.93
2023-04-25T04:41:43.885Z,1.00
2023-04-25T04:44:11.713Z,0.93
2023-04-25T04:46:43.142Z,1.33
2023-04-25T04:49:11.097Z,0.82
2023-04-25T04:51:38.652Z,0.93
2023-04-25T04:54:06.095Z,1.20
2023-04-25T04:56:34.103Z,0.70
2023-04-25T04:59:02.853Z,0.93
2023-04-25T05:01:31.157Z,1.10
2023-04-25T05:04:01.807Z,1.10
2023-04-25T05:06:32.262Z,1.00
2023-04-25T05:08:59.808Z,1.10
2023-04-25T05:11:27.295Z,0.90
2023-04-25T05:13:54.579Z,1.10
2023-04-25T05:16:22.147Z,0.80
2023-04-25T05:18:49.290Z,0.90
2023-04-25T05:21:16.539Z,0.77
2023-04-25T05:23:43.719Z,0.73
2023-04-25T05:26:14.957Z,0.80
2023-04-25T05:28:42.878Z,0.70
2023-04-25T05:31:12.823Z,0.75
2023-04-25T05:33:40.055Z,1.27
2023-04-25T05:36:07.578Z,0.80
2023-04-25T05:38:35.157Z,0.82
2023-04-25T05:41:04.370Z,0.85
2023-04-25T05:43:31.468Z,1.25
2023-04-25T05:45:58.587Z,0.88
2023-04-25T05:48:25.818Z,0.98
2023-04-25T05:50:53.016Z,0.73
2023-04-25T05:53:20.796Z,0.90
2023-04-25T05:55:48.300Z,0.82
2023-04-25T05:58:15.452Z,0.93
2023-04-25T06:00:42.662Z,1.02
2023-04-25T06:03:10.997Z,1.10
2023-04-25T06:05:38.443Z,0.80
2023-04-25T06:08:05.653Z,1.10
2023-04-25T06:10:32.777Z,0.73
2023-04-25T06:12:59.988Z,0.73
2023-04-25T06:15:28.812Z,0.80
2023-04-25T06:17:56.566Z,0.90
2023-04-25T06:20:25.450Z,0.95
2023-04-25T06:22:52.951Z,0.50
2023-04-25T06:25:20.860Z,0.90
2023-04-25T06:27:48.259Z,0.75
2023-04-25T06:30:16.241Z,0.70
2023-04-25T06:32:43.422Z,0.70
2023-04-25T06:35:11.309Z,1.13
2023-04-25T06:37:38.500Z,0.70
2023-04-25T06:40:05.982Z,0.80
2023-04-25T06:42:33.180Z,0.90
2023-04-25T06:45:00.400Z,0.93
2023-04-25T06:47:27.543Z,0.70
2023-04-25T06:49:54.792Z,0.70
2023-04-25T06:52:21.923Z,0.90
2023-04-25T06:54:49.158Z,0.60
2023-04-25T06:57:16.317Z,0.80
2023-04-25T06:59:44.532Z,0.77
2023-04-25T07:02:11.832Z,0.70
2023-04-25T07:04:39.346Z,1.00
2023-04-25T07:07:06.562Z,0.80
2023-04-25T07:09:34.901Z,0.80
2023-04-25T07:12:02.631Z,1.10
2023-04-25T07:14:30.087Z,1.08
2023-04-25T07:16:57.975Z,0.90
2023-04-25T07:19:27.556Z,0.70
2023-04-25T07:21:54.802Z,1.00
2023-04-25T07:24:22.036Z,0.70
2023-04-25T07:26:49.192Z,0.70
2023-04-25T07:29:16.458Z,0.95
2023-04-25T07:31:43.639Z,0.52
2023-04-25T07:34:10.846Z,0.80
2023-04-25T07:36:38.184Z,0.73
2023-04-25T07:39:05.345Z,0.85
2023-04-25T07:41:32.489Z,0.80
2023-04-25T07:43:59.611Z,0.60
2023-04-25T07:46:26.867Z,0.60
2023-04-25T07:48:54.297Z,0.70
2023-04-25T07:51:23.108Z,0.70
2023-04-25T07:53:50.631Z,0.90
2023-04-25T07:56:18.062Z,0.88
2023-04-25T07:58:45.280Z,0.82
2023-04-25T08:01:12.503Z,0.75
2023-04-25T08:03:39.743Z,0.77
2023-04-25T08:06:08.439Z,0.57
2023-04-25T08:11:03.314Z,0.60
2023-04-25T08:13:30.576Z,0.57
2023-04-25T08:15:57.759Z,1.05
2023-04-25T08:18:25.118Z,0.52
2023-04-25T08:20:52.270Z,0.60
2023-04-25T08:23:19.544Z,0.70
2023-04-25T08:25:46.769Z,0.65
2023-04-25T08:28:13.942Z,0.70
2023-04-25T08:30:41.338Z,0.60
2023-04-25T08:33:08.612Z,0.50
2023-04-25T08:35:36.074Z,0.70
2023-04-25T08:38:03.309Z,0.70
2023-04-25T08:40:31.346Z,0.50
2023-04-25T08:42:59.366Z,0.60
2023-04-25T08:45:29.290Z,0.75
2023-04-25T08:47:58.021Z,0.63
2023-04-25T08:50:27.275Z,0.60
2023-04-25T08:52:55.527Z,0.60
2023-04-25T08:55:23.840Z,0.50
2023-04-25T08:57:51.379Z,0.68
2023-04-25T09:00:18.988Z,0.50
2023-04-25T09:02:46.769Z,0.70
2023-04-25T09:05:14.556Z,0.40
2023-04-25T09:07:41.840Z,0.70
2023-04-25T09:10:09.342Z,0.70
2023-04-25T09:12:37.150Z,0.60
2023-04-25T09:15:06.362Z,0.60
2023-04-25T09:17:33.602Z,0.50
2023-04-25T09:20:08.310Z,1.05
2023-04-25T09:22:36.143Z,0.50
2023-04-25T09:25:13.076Z,0.65
2023-04-25T09:27:53.135Z,0.60
2023-04-25T09:30:20.516Z,0.50
2023-04-25T09:32:48.727Z,0.70
2023-04-25T09:35:25.583Z,0.70
2023-04-25T09:37:52.841Z,0.73
2023-04-25T09:40:20.259Z,0.50
2023-04-25T09:42:47.376Z,0.65
2023-04-25T09:45:16.217Z,0.40
2023-04-25T09:50:16.458Z,0.55
2023-04-25T09:52:43.572Z,0.73
2023-04-25T09:55:10.726Z,0.82
2023-04-25T09:57:40.962Z,0.50
2023-04-25T10:00:13.112Z,0.40
2023-04-25T10:02:40.317Z,0.60
2023-04-25T10:05:09.443Z,0.70
2023-04-25T10:07:39.225Z,0.50
2023-04-25T10:10:07.056Z,0.68
2023-04-25T10:12:35.280Z,0.73
2023-04-25T10:15:02.845Z,0.70
2023-04-25T10:17:30.201Z,0.65
2023-04-25T10:19:57.623Z,0.57
2023-04-25T10:22:32.756Z,0.45
2023-04-25T10:25:00.186Z,0.70
2023-04-25T10:27:29.490Z,0.40
2023-04-25T10:30:05.534Z,0.50
2023-04-25T10:32:36.382Z,0.75
2023-04-25T10:35:12.810Z,0.50
2023-04-25T10:37:40.860Z,0.35
2023-04-25T10:40:11.525Z,0.60
2023-04-25T10:42:38.650Z,0.50
2023-04-25T10:45:09.277Z,0.60
2023-04-25T10:47:37.594Z,0.43
2023-04-25T10:50:08.383Z,0.43
2023-04-25T10:52:35.621Z,0.50
2023-04-25T10:55:05.299Z,0.50
2023-04-25T10:57:43.009Z,0.60
2023-04-25T11:00:16.207Z,0.35
2023-04-25T11:02:44.233Z,0.50
2023-04-25T11:05:11.588Z,0.57
2023-04-25T11:10:29.565Z,0.45
2023-04-25T11:12:56.732Z,0.50
2023-04-25T11:15:23.923Z,0.40
2023-04-25T11:17:53.354Z,0.60
2023-04-25T11:20:20.884Z,0.40
2023-04-25T11:22:49.389Z,0.47
2023-04-25T11:25:18.050Z,0.32
2023-04-25T11:27:52.425Z,0.80
2023-04-25T11:30:20.114Z,0.52
2023-04-25T11:32:47.885Z,0.40
2023-04-25T11:35:16.119Z,0.50
2023-04-25T11:37:44.089Z,0.40
2023-04-25T11:40:12.548Z,0.52
2023-04-25T11:42:40.608Z,0.47
2023-04-25T11:45:08.940Z,0.50
2023-04-25T11:47:36.278Z,0.60
2023-04-25T11:50:04.770Z,0.80
2023-04-25T11:52:41.821Z,0.60
2023-04-25T11:55:11.516Z,0.50
2023-04-25T11:57:42.084Z,0.60
2023-04-25T12:00:12.961Z,0.60
2023-04-25T12:02:45.049Z,0.50
2023-04-25T12:05:30.556Z,0.60
2023-04-25T12:10:27.144Z,0.40
2023-04-25T12:12:55.097Z,0.50
2023-04-25T12:15:26.826Z,0.50
2023-04-25T12:17:56.176Z,0.60
2023-04-25T12:20:26.288Z,0.40
2023-04-25T12:22:53.850Z,0.63
2023-04-25T12:25:39.906Z,0.32
2023-04-25T12:28:13.317Z,0.65
2023-04-25T12:30:59.502Z,0.47
2023-04-25T12:33:27.934Z,0.30
2023-04-25T12:35:55.768Z,0.60
2023-04-25T12:38:26.933Z,0.50
2023-04-25T12:40:54.510Z,0.40
2023-04-25T12:43:22.705Z,0.65
2023-04-25T12:45:51.189Z,0.57
2023-04-25T12:48:18.584Z,0.52
2023-04-25T12:50:49.146Z,0.68
2023-04-25T12:53:17.019Z,0.40
2023-04-25T12:55:44.485Z,0.50
2023-04-25T12:58:11.664Z,0.50
2023-04-25T13:00:38.846Z,0.60
2023-04-25T13:03:06.238Z,0.50
2023-04-25T13:05:33.484Z,0.45
2023-04-25T13:08:00.576Z,0.70
2023-04-25T13:10:27.667Z,0.45
2023-04-25T13:12:54.783Z,0.40
2023-04-25T13:15:22.889Z,0.63
2023-04-25T13:17:50.054Z,0.57
2023-04-25T13:20:17.971Z,0.47
2023-04-25T13:22:46.653Z,0.50
2023-04-25T13:25:14.067Z,0.40
2023-04-25T13:27:41.675Z,0.30
2023-04-25T13:30:09.797Z,0.57
2023-04-25T13:32:37.401Z,0.70
2023-04-25T13:35:07.803Z,0.50
2023-04-25T13:37:36.407Z,0.40
2023-04-25T13:40:06.048Z,0.50
2023-04-25T13:42:33.438Z,0.50
2023-04-25T13:45:00.573Z,0.50
2023-04-25T13:47:28.242Z,0.40
2023-04-25T13:49:55.568Z,0.40
2023-04-25T13:52:22.739Z,0.60
2023-04-25T13:54:49.837Z,0.65
2023-04-25T13:57:17.107Z,0.57
2023-04-25T13:59:44.362Z,0.30
2023-04-25T14:02:11.661Z,0.50
2023-04-25T14:04:39.629Z,0.52
2023-04-25T14:07:07.195Z,0.40
2023-04-25T14:09:35.622Z,0.50
2023-04-25T14:12:03.160Z,0.50
2023-04-25T14:14:30.457Z,0.40
2023-04-25T14:16:58.394Z,0.60
2023-04-25T14:19:25.694Z,0.50
2023-04-25T14:21:52.894Z,0.40
2023-04-25T14:24:20.015Z,0.57
2023-04-25T14:26:47.186Z,0.50
2023-04-25T14:29:14.519Z,0.43
2023-04-25T14:31:42.024Z,0.50
2023-04-25T14:34:09.679Z,0.40
2023-04-25T14:36:37.594Z,0.50
2023-04-25T14:39:06.253Z,0.55
2023-04-25T14:41:33.780Z,0.50
2023-04-25T14:44:00.931Z,0.57
2023-04-25T14:46:28.209Z,0.43
2023-04-25T14:48:56.946Z,0.45
2023-04-25T14:51:24.334Z,0.60
2023-04-25T14:53:52.236Z,0.47
2023-04-25T14:56:20.170Z,0.70
2023-04-25T14:58:47.699Z,0.65
2023-04-25T15:01:15.704Z,0.75
2023-04-25T15:03:43.229Z,0.80
2023-04-25T15:06:10.864Z,0.60
2023-04-25T15:08:38.040Z,0.43
2023-04-25T15:11:05.915Z,0.50
2023-04-25T15:13:33.677Z,0.70
2023-04-25T15:16:00.800Z,0.63
2023-04-25T15:18:28.018Z,0.70
2023-04-25T15:20:55.608Z,0.85
2023-04-25T15:23:23.265Z,0.63
2023-04-25T15:25:53.503Z,0.60
2023-04-25T15:28:22.308Z,0.80
2023-04-25T15:33:16.755Z,0.70
2023-04-25T15:35:43.952Z,0.75
2023-04-25T15:38:11.695Z,0.70
2023-04-25T15:40:38.928Z,0.70
2023-04-25T15:43:07.229Z,0.73
2023-04-25T15:45:35.951Z,0.90
2023-04-25T15:48:03.144Z,0.88
2023-04-25T15:50:31.843Z,0.60
2023-04-25T15:52:58.966Z,0.77
2023-04-25T15:55:27.018Z,0.60
2023-04-25T15:57:54.316Z,0.80
2023-04-25T16:00:22.628Z,0.73
2023-04-25T16:02:50.125Z,0.70
2023-04-25T16:05:18.216Z,0.82
2023-04-25T16:07:46.915Z,0.80
2023-04-25T16:10:14.744Z,0.85
2023-04-25T16:12:42.494Z,0.70
2023-04-25T16:15:10.243Z,1.13
2023-04-25T16:17:37.453Z,1.00
2023-04-25T16:20:10.388Z,0.90
2023-04-25T16:22:38.836Z,0.80
2023-04-25T16:25:06.282Z,0.70
2023-04-25T16:27:36.258Z,0.70
2023-04-25T16:30:03.568Z,0.50
2023-04-25T16:32:30.809Z,0.60
2023-04-25T16:34:59.026Z,0.60
2023-04-25T16:37:26.876Z,0.75
2023-04-25T16:39:54.368Z,0.70
2023-04-25T16:42:21.548Z,0.60
2023-04-25T16:44:48.714Z,0.43
2023-04-25T16:47:20.091Z,0.70
2023-04-25T16:49:47.631Z,0.73
2023-04-25T16:52:16.048Z,0.75
2023-04-25T16:54:43.343Z,0.88
2023-04-25T16:57:11.311Z,0.70
2023-04-25T16:59:39.341Z,1.20
2023-04-25T17:02:08.343Z,0.70
2023-04-25T17:04:35.814Z,0.77
2023-04-25T17:07:03.050Z,0.70
2023-04-25T17:09:30.581Z,1.00
2023-04-25T17:11:57.887Z,0.60
2023-04-25T17:14:25.065Z,1.10
2023-04-25T17:16:52.238Z,0.70
2023-04-25T17:19:19.506Z,1.00
2023-04-25T17:21:46.755Z,0.80
2023-04-25T17:24:15.744Z,0.63
2023-04-25T17:26:42.974Z,0.88
2023-04-25T17:29:10.618Z,0.73
2023-04-25T17:31:37.830Z,0.70
2023-04-25T17:34:05.163Z,0.60
2023-04-25T17:36:32.671Z,1.10
2023-04-25T17:38:59.915Z,0.88
2023-04-25T17:41:27.108Z,0.80
2023-04-25T17:43:54.265Z,0.80
2023-04-25T17:46:21.531Z,0.68
2023-04-25T17:48:49.579Z,0.77
2023-04-25T17:51:16.870Z,0.73
2023-04-25T17:53:44.038Z,0.80
2023-04-25T17:56:23.290Z,0.68
2023-04-25T17:58:54.629Z,0.82
2023-04-25T18:01:22.147Z,0.60
2023-04-25T18:03:50.147Z,0.60
2023-04-25T18:06:18.360Z,0.60
2023-04-25T18:08:45.723Z,0.70
2023-04-25T18:11:13.102Z,0.73
2023-04-25T18:13:40.753Z,0.60
2023-04-25T18:16:08.229Z,0.80
2023-04-25T18:18:36.309Z,0.60
2023-04-25T18:21:05.622Z,0.90
2023-04-25T18:23:37.828Z,0.95
2023-04-25T18:26:05.743Z,0.60
2023-04-25T18:28:34.486Z,0.88
2023-04-25T18:31:01.716Z,0.82
2023-04-25T18:33:28.876Z,0.82
2023-04-25T18:35:59.650Z,0.63
2023-04-25T18:41:06.175Z,1.33
2023-04-25T18:46:12.258Z,2.80
2023-04-25T18:48:39.442Z,2.00
2023-04-25T18:51:06.692Z,1.33
2023-04-25T18:53:33.857Z,1.70
2023-04-25T18:56:01.313Z,1.33
2023-04-25T18:58:28.608Z,1.58
2023-04-25T19:00:56.302Z,1.25
2023-04-25T19:03:24.869Z,1.30
2023-04-25T19:05:52.356Z,1.58
2023-04-25T19:08:19.569Z,1.35
2023-04-25T19:10:47.265Z,1.65
2023-04-25T19:13:14.711Z,1.50
2023-04-25T19:15:42.001Z,1.67
2023-04-25T19:18:09.179Z,1.83
2023-04-25T19:20:36.591Z,1.27
2023-04-25T19:23:05.427Z,1.60
2023-04-25T19:28:00.666Z,1.10
2023-04-25T19:30:29.315Z,1.50
2023-04-25T19:32:59.379Z,1.10
2023-04-25T19:35:30.809Z,1.75
2023-04-25T19:37:58.139Z,1.35
2023-04-25T19:40:26.045Z,1.35
2023-04-25T19:42:53.223Z,2.08
2023-04-25T19:45:21.535Z,1.20
2023-04-25T19:47:49.182Z,1.02
2023-04-25T19:50:16.484Z,0.90
2023-04-25T19:52:43.640Z,1.58
2023-04-25T19:55:10.909Z,1.05
2023-04-25T19:57:38.564Z,1.20
2023-04-25T20:00:08.888Z,1.15
2023-04-25T20:02:36.798Z,1.08
2023-04-25T20:05:08.037Z,1.15
2023-04-25T20:07:35.846Z,1.10
2023-04-25T20:10:04.195Z,1.00
2023-04-25T20:12:31.334Z,1.23
2023-04-25T20:14:58.628Z,1.00
2023-04-25T20:17:25.943Z,0.90
2023-04-25T20:19:53.060Z,0.95
2023-04-25T20:22:20.354Z,0.98
2023-04-25T20:24:47.598Z,0.70
2023-04-25T20:27:14.720Z,0.63
2023-04-25T20:29:42.663Z,0.80
2023-04-25T20:32:09.857Z,1.00
2023-04-25T20:34:37.159Z,1.00
2023-04-25T20:37:04.328Z,0.95
2023-04-25T20:39:33.229Z,0.68
2023-04-25T20:44:27.440Z,0.90
2023-04-25T20:46:54.608Z,0.88
2023-04-25T20:49:21.790Z,0.80
2023-04-25T20:51:48.900Z,0.98
2023-04-25T20:54:16.122Z,0.88
2023-04-25T20:56:43.358Z,0.82
2023-04-25T20:59:10.635Z,0.73
2023-04-25T21:01:37.899Z,1.00
2023-04-25T21:04:06.162Z,0.90
2023-04-25T21:06:34.636Z,1.00
2023-04-25T21:09:01.778Z,0.93
2023-04-25T21:11:30.006Z,0.90
2023-04-25T21:13:57.129Z,1.00
2023-04-25T21:16:24.276Z,1.00
2023-04-25T21:18:51.692Z,1.00
2023-04-25T21:21:19.034Z,0.93
2023-04-25T21:23:46.169Z,0.80
2023-04-25T21:26:13.275Z,0.90
2023-04-25T21:28:40.520Z,1.40
2023-04-25T21:31:07.661Z,0.80
2023-04-25T21:33:34.750Z,0.82
2023-04-25T21:36:01.855Z,0.50
2023-04-25T21:38:28.966Z,0.60
2023-04-25T21:40:56.416Z,0.90
2023-04-25T21:43:23.721Z,0.60
2023-04-25T21:46:11.489Z,0.75
2023-04-25T21:48:38.029Z,0.88
2023-04-25T21:51:05.319Z,1.00
2023-04-25T21:53:32.455Z,0.93
2023-04-25T21:55:59.828Z,0.70
2023-04-25T21:58:27.237Z,0.85
2023-04-25T22:00:55.587Z,0.70
2023-04-25T22:03:23.008Z,0.70
2023-04-25T22:05:50.291Z,0.60
2023-04-25T22:08:17.446Z,0.98
2023-04-25T22:10:45.061Z,1.00
2023-04-25T22:13:12.153Z,0.90
2023-04-25T22:15:39.216Z,0.70
2023-04-25T22:18:06.447Z,0.88
2023-04-25T22:20:34.541Z,0.70
2023-04-25T22:23:01.916Z,0.90
2023-04-25T22:25:29.822Z,0.80
2023-04-25T22:27:57.331Z,1.00
2023-04-25T22:30:24.655Z,0.77
2023-04-25T22:32:52.047Z,0.88
2023-04-25T22:35:19.521Z,0.70
2023-04-25T22:37:46.642Z,0.63
2023-04-25T22:40:14.047Z,1.02
2023-04-25T22:42:42.209Z,1.00
2023-04-25T22:45:10.294Z,0.82
2023-04-25T22:47:37.951Z,0.70
2023-04-25T22:50:07.717Z,0.80
2023-04-25T22:52:34.874Z,0.90
2023-04-25T22:55:05.401Z,0.63
2023-04-25T22:57:33.033Z,0.77
2023-04-25T23:00:00.222Z,0.90
2023-04-25T23:02:27.874Z,0.80
2023-04-25T23:04:55.221Z,0.80
2023-04-25T23:07:22.407Z,1.00
2023-04-25T23:09:49.920Z,0.73
2023-04-25T23:12:20.111Z,0.88
2023-04-25T23:14:53.658Z,0.80
2023-04-25T23:17:21.119Z,0.80
2023-04-25T23:19:48.358Z,0.90
2023-04-25T23:22:15.577Z,0.90
2023-04-25T23:24:42.756Z,1.45
2023-04-25T23:27:09.918Z,0.70
2023-04-25T23:29:37.090Z,0.80
2023-04-25T23:32:04.519Z,0.90
2023-04-25T23:34:31.904Z,0.75
2023-04-25T23:37:04.354Z,0.80
2023-04-25T23:39:31.728Z,0.90
2023-04-25T23:41:58.844Z,0.77
2023-04-25T23:44:25.960Z,0.75
2023-04-25T23:46:53.070Z,0.85
2023-04-25T23:49:20.986Z,1.00
2023-04-25T23:51:48.178Z,1.38
2023-04-25T23:54:15.912Z,0.57
2023-04-25T23:56:43.016Z,0.80
2023-04-25T23:59:10.225Z,1.23
